Time;durP1;ratioP1;P1;durP2;ratioP2;P2;SDS_P1;SDS_P2;PMS_P1;PMS_P2;Temp;Humidity;BMP_temperature;BMP_pressure;BME280_temperature;BME280_humidity;BME280_pressure;Samples;Min_cycle;Max_cycle;Signal;HPM_P1;HPM_P2
2024/04/07 00:02:20;;;;;;;18.35;8.45;;;16.90;74.30;;;;;;5033114;28;20124;-68
2024/04/07 00:04:47;;;;;;;14.35;8.82;;;16.80;74.70;;;;;;5022584;28;20041;-68
2024/04/07 00:07:13;;;;;;;16.40;8.52;;;16.90;74.70;;;;;;5034318;28;20070;-67
2024/04/07 00:09:39;;;;;;;16.73;8.52;;;17.10;75.00;;;;;;5038720;28;20032;-67
2024/04/07 00:12:08;;;;;;;13.65;9.25;;;17.00;75.30;;;;;;5021562;28;20415;-68
2024/04/07 00:14:38;;;;;;;15.57;8.23;;;17.00;75.50;;;;;;5055834;28;20036;-68
2024/04/07 00:17:05;;;;;;;16.42;8.18;;;17.10;75.10;;;;;;5039053;28;20429;-68
2024/04/07 00:19:33;;;;;;;15.80;8.30;;;17.00;75.60;;;;;;5055739;28;20439;-69
2024/04/07 00:21:59;;;;;;;14.95;7.97;;;16.90;75.90;;;;;;5055789;28;20480;-68
2024/04/07 00:24:26;;;;;;;17.58;8.10;;;16.60;76.10;;;;;;5058265;28;20472;-69
2024/04/07 00:26:52;;;;;;;15.18;7.55;;;16.70;76.60;;;;;;5014063;28;20419;-70
2024/04/07 00:29:18;;;;;;;11.63;6.95;;;16.70;75.50;;;;;;5011765;28;20040;-69
2024/04/07 00:31:44;;;;;;;11.60;7.18;;;16.70;75.40;;;;;;5039155;28;20383;-68
2024/04/07 00:34:10;;;;;;;10.48;6.35;;;16.60;75.00;;;;;;5037330;28;20040;-68
2024/04/07 00:36:37;;;;;;;8.70;5.97;;;16.60;74.40;;;;;;5041247;28;20029;-68
2024/04/07 00:39:03;;;;;;;9.95;5.97;;;16.60;74.40;;;;;;5052525;28;20102;-68
2024/04/07 00:41:29;;;;;;;11.30;5.88;;;16.50;74.00;;;;;;5037545;28;20036;-67
2024/04/07 00:43:55;;;;;;;10.02;5.78;;;16.50;73.50;;;;;;5054739;28;20438;-67
2024/04/07 00:46:22;;;;;;;10.07;5.97;;;16.40;73.70;;;;;;5038501;28;20036;-68
2024/04/07 00:48:48;;;;;;;12.10;6.07;;;16.40;74.20;;;;;;5035371;28;20041;-67
2024/04/07 00:51:15;;;;;;;10.13;6.15;;;16.30;74.90;;;;;;5016536;28;20044;-67
2024/04/07 00:53:41;;;;;;;9.40;6.00;;;16.00;75.70;;;;;;5055340;28;20033;-67
2024/04/07 00:56:10;;;;;;;10.93;7.20;;;16.00;75.90;;;;;;5055182;28;20043;-68
2024/04/07 00:58:36;;;;;;;11.23;6.30;;;16.00;76.20;;;;;;5038873;28;20071;-68
2024/04/07 01:01:04;;;;;;;9.55;6.35;;;16.10;76.10;;;;;;5057872;28;20028;-67
2024/04/07 01:03:30;;;;;;;11.23;6.50;;;16.00;75.90;;;;;;5044211;28;20075;-67
2024/04/07 01:05:56;;;;;;;11.18;6.60;;;16.00;76.40;;;;;;5053376;28;20078;-67
2024/04/07 01:08:22;;;;;;;14.05;6.40;;;16.00;76.60;;;;;;5054920;28;20028;-68
2024/04/07 01:10:52;;;;;;;10.90;6.40;;;15.90;76.60;;;;;;5054925;28;20040;-69
2024/04/07 01:13:24;;;;;;;10.35;6.05;;;15.80;76.70;;;;;;5054869;28;20032;-68
2024/04/07 01:15:50;;;;;;;10.55;6.18;;;15.70;77.00;;;;;;5025503;28;20035;-68
2024/04/07 01:18:16;;;;;;;8.50;6.10;;;15.80;76.90;;;;;;5038313;28;20099;-68
2024/04/07 01:20:43;;;;;;;11.18;6.03;;;15.90;76.60;;;;;;5018175;28;20400;-68
2024/04/07 01:23:16;;;;;;;14.00;6.55;;;15.90;76.70;;;;;;5015528;28;20052;-68
2024/04/07 01:25:42;;;;;;;9.20;6.43;;;15.90;77.10;;;;;;5030589;28;20438;-68
2024/04/07 01:28:08;;;;;;;9.40;5.80;;;15.90;77.20;;;;;;5012446;28;20037;-69
2024/04/07 01:30:34;;;;;;;9.30;6.18;;;15.70;78.00;;;;;;5036722;28;20033;-69
2024/04/07 01:33:00;;;;;;;8.98;6.28;;;15.70;77.80;;;;;;5037211;28;20652;-68
2024/04/07 01:35:27;;;;;;;9.23;6.28;;;15.60;78.50;;;;;;5048042;28;20119;-69
2024/04/07 01:37:53;;;;;;;11.73;6.80;;;15.30;79.40;;;;;;5038049;28;20043;-68
2024/04/07 01:40:19;;;;;;;16.85;7.25;;;15.20;79.40;;;;;;5037479;28;20032;-69
2024/04/07 01:42:45;;;;;;;11.43;6.70;;;15.20;79.60;;;;;;5054046;28;20123;-69
2024/04/07 01:45:13;;;;;;;14.15;6.63;;;15.40;79.50;;;;;;5054219;28;20029;-68
2024/04/07 01:47:39;;;;;;;16.38;7.68;;;15.50;78.90;;;;;;5037907;28;20048;-69
2024/04/07 01:50:07;;;;;;;13.90;6.97;;;15.50;79.20;;;;;;5020363;28;20078;-69
2024/04/07 01:52:33;;;;;;;13.57;7.03;;;15.60;78.70;;;;;;5037513;28;20033;-68
2024/04/07 01:54:59;;;;;;;11.38;6.85;;;15.70;78.60;;;;;;5037333;28;20036;-69
2024/04/07 01:57:26;;;;;;;12.23;6.25;;;15.70;78.50;;;;;;5037509;28;20055;-69
2024/04/07 01:59:52;;;;;;;10.88;7.03;;;15.60;78.60;;;;;;5054094;28;20041;-68
2024/04/07 02:02:19;;;;;;;10.63;7.07;;;15.40;78.80;;;;;;5053812;28;20043;-68
2024/04/07 02:04:46;;;;;;;12.38;7.22;;;15.60;78.60;;;;;;5053806;28;20043;-68
2024/04/07 02:07:13;;;;;;;12.52;6.65;;;15.70;78.50;;;;;;5041308;28;20098;-69
2024/04/07 02:09:39;;;;;;;10.45;7.28;;;15.70;78.20;;;;;;5037456;28;20032;-68
2024/04/07 02:12:06;;;;;;;11.40;7.25;;;15.70;78.40;;;;;;5019939;28;20044;-68
2024/04/07 02:14:32;;;;;;;9.63;7.13;;;15.70;78.20;;;;;;5038062;28;20028;-68
2024/04/07 02:16:59;;;;;;;10.88;7.07;;;15.90;78.00;;;;;;5037124;28;20480;-68
2024/04/07 02:19:25;;;;;;;11.15;7.47;;;15.80;77.30;;;;;;5052979;28;20029;-68
2024/04/07 02:21:51;;;;;;;14.85;6.55;;;15.90;77.40;;;;;;5037688;28;20076;-68
2024/04/07 02:24:18;;;;;;;12.63;7.80;;;15.80;78.10;;;;;;5047282;28;20048;-69
2024/04/07 02:26:46;;;;;;;8.30;6.13;;;15.90;78.20;;;;;;5037010;28;20044;-69
2024/04/07 02:29:14;;;;;;;11.10;6.72;;;16.10;77.50;;;;;;5052644;28;20040;-68
2024/04/07 02:31:40;;;;;;;10.15;7.30;;;16.10;77.70;;;;;;5053081;28;20361;-70
2024/04/07 02:34:08;;;;;;;11.98;7.13;;;16.10;78.30;;;;;;5052561;28;20036;-69
2024/04/07 02:36:34;;;;;;;13.07;6.80;;;16.00;79.10;;;;;;5053079;28;20420;-69
2024/04/07 02:39:02;;;;;;;15.45;7.25;;;16.10;78.70;;;;;;5037032;28;20048;-68
2024/04/07 02:41:28;;;;;;;12.38;7.35;;;16.10;78.00;;;;;;5053443;28;20036;-68
2024/04/07 02:43:54;;;;;;;14.07;8.07;;;16.10;78.50;;;;;;5053492;28;20059;-69
2024/04/07 02:49:05;;;;;;;11.48;6.63;;;16.10;78.70;;;;;;5052837;28;20060;-68
2024/04/07 02:51:31;;;;;;;12.35;6.68;;;16.20;78.30;;;;;;5024112;28;20067;-68
2024/04/07 02:53:57;;;;;;;12.68;6.10;;;16.20;78.80;;;;;;5044691;28;20036;-69
2024/04/07 02:56:24;;;;;;;12.10;6.68;;;16.30;79.00;;;;;;5016736;28;20037;-68
2024/04/07 02:58:50;;;;;;;11.77;6.53;;;16.10;78.80;;;;;;5028633;28;20055;-68
2024/04/07 03:01:16;;;;;;;11.98;6.68;;;15.80;79.20;;;;;;5033012;28;20032;-69
2024/04/07 03:03:45;;;;;;;9.95;6.57;;;15.90;79.30;;;;;;5036273;28;20384;-68
2024/04/07 03:06:12;;;;;;;11.93;6.50;;;15.80;78.10;;;;;;5035631;28;20044;-67
2024/04/07 03:08:39;;;;;;;13.55;6.78;;;15.70;79.90;;;;;;5052496;28;20430;-68
2024/04/07 03:11:06;;;;;;;10.68;6.38;;;15.70;79.50;;;;;;5052937;28;20040;-68
2024/04/07 03:13:34;;;;;;;11.70;6.57;;;15.80;78.30;;;;;;5035587;28;20071;-68
2024/04/07 03:16:00;;;;;;;14.68;6.22;;;15.90;77.40;;;;;;5035781;28;20089;-68
2024/04/07 03:18:26;;;;;;;11.25;6.65;;;15.90;77.30;;;;;;5033094;28;20048;-68
2024/04/07 03:20:52;;;;;;;13.85;6.65;;;15.80;78.90;;;;;;5044300;28;20475;-68
2024/04/07 03:23:19;;;;;;;11.77;6.90;;;15.80;78.90;;;;;;5033222;28;20041;-69
2024/04/07 03:25:45;;;;;;;10.93;6.53;;;15.80;79.60;;;;;;5045527;28;20033;-68
2024/04/07 03:28:12;;;;;;;15.52;7.20;;;15.50;80.30;;;;;;5035748;28;20081;-68
2024/04/07 03:30:38;;;;;;;10.10;6.93;;;15.50;81.00;;;;;;5052949;28;20033;-68
2024/04/07 03:33:04;;;;;;;14.50;7.10;;;15.70;80.20;;;;;;5036207;28;20040;-68
2024/04/07 03:35:31;;;;;;;10.25;5.63;;;15.70;79.00;;;;;;5015498;28;20056;-68
2024/04/07 03:37:57;;;;;;;9.77;6.28;;;15.60;78.60;;;;;;5048018;28;20106;-67
2024/04/07 03:40:24;;;;;;;10.40;6.00;;;15.50;78.50;;;;;;5052227;28;20033;-68
2024/04/07 03:42:50;;;;;;;8.80;6.50;;;15.40;78.80;;;;;;5036466;28;20041;-69
2024/04/07 03:45:16;;;;;;;10.38;6.05;;;15.40;80.40;;;;;;5035882;28;20025;-68
2024/04/07 03:47:43;;;;;;;9.52;6.25;;;15.30;80.10;;;;;;5035413;28;20102;-69
2024/04/07 03:50:09;;;;;;;11.90;5.82;;;15.40;80.70;;;;;;5032437;28;20056;-70
2024/04/07 03:52:35;;;;;;;9.10;5.90;;;15.40;79.40;;;;;;5045173;28;20475;-69
2024/04/07 03:55:02;;;;;;;8.18;5.38;;;15.40;78.80;;;;;;5039719;28;20029;-69
2024/04/07 03:57:29;;;;;;;11.57;5.70;;;15.20;79.20;;;;;;5038719;28;20037;-69
2024/04/07 03:59:55;;;;;;;10.02;5.13;;;15.30;78.90;;;;;;5038417;28;20036;-69
2024/04/07 04:02:25;;;;;;;9.40;5.22;;;15.30;78.30;;;;;;5038876;28;20052;-69
2024/04/07 04:04:59;;;;;;;9.43;5.82;;;15.40;77.90;;;;;;5016295;28;20045;-67
2024/04/07 04:07:27;;;;;;;10.02;5.55;;;15.30;78.90;;;;;;5048198;28;20181;-68
2024/04/07 04:09:55;;;;;;;9.30;5.70;;;15.40;78.30;;;;;;5052128;28;20407;-67
2024/04/07 04:12:21;;;;;;;9.82;5.78;;;15.20;80.30;;;;;;5052100;28;20102;-68
2024/04/07 04:14:49;;;;;;;7.43;5.63;;;15.10;81.20;;;;;;5052533;28;20032;-67
2024/04/07 04:17:16;;;;;;;12.50;5.97;;;15.10;81.00;;;;;;5022432;28;20385;-68
2024/04/07 04:19:42;;;;;;;11.70;5.63;;;15.00;81.60;;;;;;5035778;28;20090;-68
2024/04/07 04:22:09;;;;;;;13.10;6.05;;;15.10;81.70;;;;;;5026780;28;20044;-68
2024/04/07 04:24:36;;;;;;;9.65;5.80;;;15.20;81.50;;;;;;5051918;28;20348;-68
2024/04/07 04:27:03;;;;;;;10.45;5.97;;;15.30;81.00;;;;;;5037052;28;20044;-66
2024/04/07 04:29:31;;;;;;;8.88;5.97;;;15.10;81.30;;;;;;5055698;28;20434;-68
2024/04/07 04:31:57;;;;;;;9.38;5.88;;;15.20;81.40;;;;;;5038771;28;20036;-68
2024/04/07 04:34:24;;;;;;;10.13;6.03;;;15.10;81.00;;;;;;5055677;28;20387;-69
2024/04/07 04:36:51;;;;;;;9.40;5.97;;;15.00;81.90;;;;;;5038785;28;20037;-67
2024/04/07 04:39:22;;;;;;;8.35;5.82;;;15.10;81.90;;;;;;5055500;28;20040;-68
2024/04/07 04:41:48;;;;;;;10.95;7.05;;;15.20;82.10;;;;;;5037880;28;20036;-68
2024/04/07 04:44:16;;;;;;;9.27;6.07;;;15.10;81.60;;;;;;5055535;28;20040;-68
2024/04/07 04:46:46;;;;;;;18.40;6.57;;;15.40;81.20;;;;;;5053833;28;20028;-69
2024/04/07 04:49:14;;;;;;;9.85;5.95;;;15.40;80.80;;;;;;5038121;28;20053;-68
2024/04/07 04:51:41;;;;;;;11.07;5.57;;;15.40;80.50;;;;;;5049120;28;20029;-68
2024/04/07 04:54:07;;;;;;;8.68;6.10;;;15.40;80.70;;;;;;5033719;28;20724;-69
2024/04/07 04:56:33;;;;;;;13.63;6.22;;;15.50;80.60;;;;;;5054734;28;20059;-68
2024/04/07 04:58:59;;;;;;;8.73;5.82;;;15.50;81.10;;;;;;5037580;28;20102;-67
2024/04/07 05:01:27;;;;;;;8.30;5.93;;;15.40;80.00;;;;;;5054666;28;20169;-68
2024/04/07 05:03:54;;;;;;;11.77;5.47;;;14.90;81.10;;;;;;5038846;28;20028;-68
2024/04/07 05:06:20;;;;;;;65.57;42.97;;;14.90;82.00;;;;;;5052510;28;20082;-67
2024/04/07 05:08:48;;;;;;;25.00;16.23;;;15.10;82.20;;;;;;5054472;28;20074;-66
2024/04/07 05:11:14;;;;;;;16.73;7.68;;;15.20;81.30;;;;;;5053527;28;20036;-66
2024/04/07 05:13:41;;;;;;;11.73;7.90;;;15.20;81.70;;;;;;5020629;28;20098;-66
2024/04/07 05:16:08;;;;;;;12.38;6.32;;;15.50;81.80;;;;;;5015121;28;20045;-65
2024/04/07 05:18:34;;;;;;;12.00;7.18;;;15.70;80.60;;;;;;5019347;28;20386;-65
2024/04/07 05:21:04;;;;;;;44.15;28.13;;;16.00;80.70;;;;;;5029603;28;20522;-67
2024/04/07 05:23:36;;;;;;;66.28;39.15;;;16.40;80.40;;;;;;5042360;28;20028;-65
2024/04/07 05:26:10;;;;;;;36.55;24.05;;;16.60;79.50;;;;;;5038026;28;20098;-66
2024/04/07 05:28:37;;;;;;;16.08;9.50;;;16.70;78.50;;;;;;5015632;28;20047;-67
2024/04/07 05:31:04;;;;;;;11.80;7.38;;;16.80;77.80;;;;;;5020778;28;20090;-67
2024/04/07 05:33:31;;;;;;;8.70;5.65;;;16.70;77.90;;;;;;5053958;28;20357;-66
2024/04/07 05:35:57;;;;;;;10.00;5.95;;;16.70;78.70;;;;;;5054472;28;20041;-67
2024/04/07 05:38:24;;;;;;;8.60;5.75;;;16.80;78.50;;;;;;5053237;28;20025;-67
2024/04/07 05:40:58;;;;;;;10.30;6.22;;;16.90;78.10;;;;;;5018188;28;20373;-67
2024/04/07 05:43:24;;;;;;;11.40;6.63;;;17.00;77.90;;;;;;5051727;28;20120;-68
2024/04/07 05:45:51;;;;;;;11.55;7.07;;;16.90;78.10;;;;;;5049158;28;20493;-68
2024/04/07 05:48:18;;;;;;;13.48;5.95;;;16.90;78.00;;;;;;5053921;28;20035;-68
2024/04/07 05:50:44;;;;;;;16.38;6.13;;;16.80;78.30;;;;;;5017901;28;20055;-68
2024/04/07 05:53:10;;;;;;;8.80;6.40;;;16.80;78.70;;;;;;5032690;28;20059;-68
2024/04/07 05:55:37;;;;;;;9.90;6.20;;;17.00;77.80;;;;;;5017938;28;20388;-68
2024/04/07 05:58:03;;;;;;;12.10;6.15;;;17.10;77.60;;;;;;5052687;28;20032;-69
2024/04/07 06:00:36;;;;;;;12.10;6.28;;;17.20;77.10;;;;;;5037273;28;20522;-69
2024/04/07 06:03:02;;;;;;;10.02;6.10;;;17.00;78.30;;;;;;5036722;28;20032;-68
2024/04/07 06:05:29;;;;;;;9.95;6.38;;;16.80;78.80;;;;;;5053937;28;20037;-67
2024/04/07 06:07:55;;;;;;;10.75;6.38;;;17.00;78.60;;;;;;5037344;28;20036;-68
2024/04/07 06:10:22;;;;;;;10.73;6.88;;;17.10;77.20;;;;;;5053699;28;20036;-69
2024/04/07 06:12:49;;;;;;;11.00;6.50;;;17.20;77.80;;;;;;5020852;28;20049;-67
2024/04/07 06:15:15;;;;;;;10.55;6.00;;;17.30;77.90;;;;;;5050330;28;20032;-68
2024/04/07 06:17:43;;;;;;;11.13;6.63;;;17.30;78.00;;;;;;5053792;28;20036;-69
2024/04/07 06:20:10;;;;;;;9.02;6.25;;;17.40;77.60;;;;;;5036956;28;20048;-68
2024/04/07 06:22:36;;;;;;;9.75;6.50;;;17.70;77.20;;;;;;5037068;28;20460;-68
2024/04/07 06:25:03;;;;;;;11.95;5.93;;;17.70;76.50;;;;;;5034025;28;20044;-69
2024/04/07 06:27:31;;;;;;;11.10;6.13;;;17.70;76.00;;;;;;5030669;28;20483;-70
2024/04/07 06:30:00;;;;;;;12.05;6.25;;;17.80;75.00;;;;;;5036958;28;20075;-69
2024/04/07 06:32:27;;;;;;;8.52;6.28;;;17.70;74.10;;;;;;5034498;28;20079;-69
2024/04/07 06:34:54;;;;;;;10.52;6.45;;;17.90;74.00;;;;;;5019837;28;20049;-69
2024/04/07 06:37:20;;;;;;;10.35;5.93;;;18.00;74.20;;;;;;5037072;28;20032;-68
2024/04/07 06:39:46;;;;;;;7.75;5.45;;;18.10;71.80;;;;;;5035901;28;20168;-69
2024/04/07 06:42:20;;;;;;;11.70;6.15;;;17.90;72.20;;;;;;5051727;28;20460;-68
2024/04/07 06:44:46;;;;;;;33.55;18.92;;;18.00;73.00;;;;;;5052584;28;20028;-69
2024/04/07 06:47:12;;;;;;;119.80;68.38;;;18.30;75.20;;;;;;5034146;28;20036;-69
2024/04/07 06:49:39;;;;;;;23.63;17.80;;;18.60;75.60;;;;;;5035441;28;20044;-66
2024/04/07 06:52:05;;;;;;;13.35;8.55;;;18.60;74.70;;;;;;5036332;28;20499;-69
2024/04/07 06:54:31;;;;;;;10.18;6.85;;;18.70;74.30;;;;;;5028046;28;20036;-69
2024/04/07 06:56:57;;;;;;;11.70;6.30;;;18.50;74.90;;;;;;5019520;28;20040;-69
2024/04/07 06:59:23;;;;;;;33.28;18.95;;;18.30;76.00;;;;;;5035594;28;20051;-66
2024/04/07 07:01:50;;;;;;;53.63;33.55;;;18.30;77.50;;;;;;5049535;28;20522;-67
2024/04/07 07:04:16;;;;;;;51.60;30.35;;;18.70;76.20;;;;;;5035315;28;20039;-67
2024/04/07 07:06:42;;;;;;;17.15;10.25;;;18.80;75.70;;;;;;5034275;28;20067;-67
2024/04/07 07:09:09;;;;;;;16.02;9.82;;;18.50;75.00;;;;;;5052016;28;20032;-69
2024/04/07 07:11:35;;;;;;;16.67;9.27;;;17.90;76.00;;;;;;5032818;28;20052;-66
2024/04/07 07:14:01;;;;;;;16.38;7.63;;;17.90;77.00;;;;;;5051680;28;20029;-69
2024/04/07 07:16:27;;;;;;;9.55;6.50;;;18.20;75.80;;;;;;5017519;28;20047;-68
2024/04/07 07:18:54;;;;;;;11.55;6.80;;;18.30;75.40;;;;;;5035460;28;20143;-68
2024/04/07 07:21:21;;;;;;;13.30;7.75;;;18.40;75.90;;;;;;5034426;28;20357;-69
2024/04/07 07:23:47;;;;;;;14.05;7.82;;;18.40;75.90;;;;;;5052144;28;20391;-68
2024/04/07 07:26:13;;;;;;;14.27;8.48;;;18.40;76.20;;;;;;5036454;28;20036;-67
2024/04/07 07:28:42;;;;;;;12.85;8.93;;;18.70;76.00;;;;;;5051422;28;20028;-70
2024/04/07 07:31:08;;;;;;;19.95;10.48;;;18.70;76.70;;;;;;5033638;28;20028;-68
2024/04/07 07:33:34;;;;;;;15.55;9.32;;;18.80;75.70;;;;;;5050229;28;20423;-69
2024/04/07 07:36:01;;;;;;;14.23;9.32;;;18.70;74.80;;;;;;5051991;28;20094;-68
2024/04/07 07:38:27;;;;;;;12.57;8.70;;;19.10;74.20;;;;;;5051123;28;20039;-69
2024/04/07 07:40:53;;;;;;;17.45;9.57;;;19.30;74.10;;;;;;5036069;28;20037;-68
2024/04/07 07:43:19;;;;;;;15.23;9.00;;;19.30;72.60;;;;;;5051505;28;20082;-69
2024/04/07 07:45:47;;;;;;;13.50;8.48;;;18.60;73.60;;;;;;5038135;28;20036;-68
2024/04/07 07:48:13;;;;;;;12.45;9.07;;;19.10;73.60;;;;;;5051647;28;20735;-69
2024/04/07 07:50:40;;;;;;;15.25;9.10;;;19.70;72.20;;;;;;5019228;28;20049;-70
2024/04/07 07:53:06;;;;;;;18.17;8.93;;;19.70;71.60;;;;;;5052081;28;20036;-68
2024/04/07 07:55:33;;;;;;;11.05;7.93;;;19.80;71.20;;;;;;5035701;28;20043;-70
2024/04/07 07:57:59;;;;;;;13.30;8.45;;;20.10;71.20;;;;;;5016641;28;20476;-67
2024/04/07 08:00:25;;;;;;;14.18;8.30;;;20.40;71.70;;;;;;5036052;28;20043;-68
2024/04/07 08:02:52;;;;;;;14.25;8.23;;;20.20;70.80;;;;;;5039300;28;20039;-68
2024/04/07 08:05:19;;;;;;;15.93;9.65;;;20.00;71.90;;;;;;5037479;28;20024;-69
2024/04/07 08:07:45;;;;;;;16.25;8.60;;;19.60;71.30;;;;;;5037401;28;20049;-67
2024/04/07 08:10:12;;;;;;;27.40;16.48;;;19.80;71.80;;;;;;5039018;28;20036;-70
2024/04/07 08:12:40;;;;;;;15.85;11.73;;;20.20;71.30;;;;;;5038194;28;20036;-69
2024/04/07 08:15:08;;;;;;;26.85;17.63;;;20.50;70.70;;;;;;5038239;28;20044;-70
2024/04/07 08:17:34;;;;;;;19.83;13.05;;;20.60;71.20;;;;;;5038815;28;20040;-69
2024/04/07 08:20:00;;;;;;;17.00;10.88;;;20.80;70.90;;;;;;5040022;28;20040;-66
2024/04/07 08:22:26;;;;;;;14.52;8.50;;;20.90;71.40;;;;;;5041987;28;20365;-68
2024/04/07 08:24:54;;;;;;;13.35;7.82;;;20.90;70.20;;;;;;5038811;28;20056;-69
2024/04/07 08:27:21;;;;;;;15.10;8.43;;;21.10;69.00;;;;;;5055745;28;20111;-68
2024/04/07 08:29:48;;;;;;;12.40;7.07;;;21.30;68.90;;;;;;5038878;28;20060;-68
2024/04/07 08:32:15;;;;;;;16.50;8.00;;;21.40;67.70;;;;;;5039187;28;20028;-69
2024/04/07 08:34:41;;;;;;;16.92;6.38;;;21.40;68.40;;;;;;5057656;28;20441;-67
2024/04/07 08:37:08;;;;;;;12.35;5.75;;;21.30;67.70;;;;;;5038677;28;20384;-70
2024/04/07 08:39:35;;;;;;;7.90;4.75;;;21.60;65.40;;;;;;5035695;28;20373;-69
2024/04/07 08:42:02;;;;;;;10.20;4.75;;;22.10;63.60;;;;;;5053656;28;20032;-71
2024/04/07 08:44:29;;;;;;;8.27;4.10;;;22.30;62.90;;;;;;5036627;28;20058;-69
2024/04/07 08:46:58;;;;;;;9.18;4.07;;;22.70;62.10;;;;;;5055056;28;20060;-68
2024/04/07 08:49:27;;;;;;;9.90;3.70;;;22.90;60.60;;;;;;5038241;28;20391;-69
2024/04/07 08:51:53;;;;;;;6.20;3.75;;;22.90;59.40;;;;;;5055316;28;20388;-69
2024/04/07 08:54:19;;;;;;;15.63;8.70;;;22.90;59.90;;;;;;5054658;28;20391;-71
2024/04/07 08:56:46;;;;;;;10.80;4.57;;;22.90;59.40;;;;;;5022012;28;20071;-69
2024/04/07 08:59:14;;;;;;;10.57;5.47;;;23.00;58.10;;;;;;5054704;28;20044;-68
2024/04/07 09:01:44;;;;;;;5.47;3.55;;;23.10;58.30;;;;;;5054488;28;20024;-69
2024/04/07 09:04:14;;;;;;;16.52;7.55;;;23.20;57.30;;;;;;5021064;28;20064;-69
2024/04/07 09:06:41;;;;;;;5.40;2.95;;;23.10;57.10;;;;;;5055165;28;20040;-69
2024/04/07 09:09:08;;;;;;;8.13;3.60;;;23.20;56.60;;;;;;5013404;28;20094;-70
2024/04/07 09:11:37;;;;;;;8.20;3.28;;;23.40;56.70;;;;;;5038285;28;20044;-69
2024/04/07 09:14:05;;;;;;;8.05;2.78;;;23.60;56.30;;;;;;5051901;28;20029;-68
2024/04/07 09:16:32;;;;;;;5.50;3.00;;;23.70;56.10;;;;;;5054884;28;20037;-67
2024/04/07 09:18:59;;;;;;;7.57;3.33;;;24.20;55.90;;;;;;5054468;28;20039;-67
2024/04/07 09:21:27;;;;;;;13.73;3.97;;;24.00;57.60;;;;;;5054361;28;20041;-68
2024/04/07 09:23:54;;;;;;;8.20;3.80;;;23.70;59.00;;;;;;5037604;28;20055;-69
2024/04/07 09:26:20;;;;;;;10.20;3.60;;;23.70;59.70;;;;;;5037552;28;20032;-69
2024/04/07 09:28:47;;;;;;;9.50;3.70;;;23.80;58.90;;;;;;5038060;28;20040;-70
2024/04/07 09:31:14;;;;;;;20.00;11.05;;;23.90;58.60;;;;;;5036233;28;20036;-68
2024/04/07 09:33:41;;;;;;;12.77;7.30;;;23.80;59.00;;;;;;5052938;28;20513;-70
2024/04/07 09:36:07;;;;;;;17.77;12.10;;;23.70;58.50;;;;;;5021735;28;20033;-68
2024/04/07 09:38:34;;;;;;;9.13;4.68;;;23.70;60.30;;;;;;5036427;28;20037;-71
2024/04/07 09:41:01;;;;;;;9.52;3.97;;;23.70;60.80;;;;;;5035770;28;20476;-68
2024/04/07 09:43:30;;;;;;;11.15;4.07;;;23.80;60.40;;;;;;5053057;28;20044;-69
2024/04/07 09:45:56;;;;;;;7.13;3.47;;;23.90;60.50;;;;;;5054576;28;20029;-72
2024/04/07 09:48:26;;;;;;;7.45;4.18;;;24.00;60.40;;;;;;5037804;28;20036;-71
2024/04/07 09:51:04;;;;;;;6.10;3.47;;;24.00;60.40;;;;;;5036681;28;20042;-70
2024/04/07 09:53:38;;;;;;;9.48;3.80;;;24.20;60.00;;;;;;5016541;28;20340;-70
2024/04/07 09:56:06;;;;;;;8.52;3.85;;;24.30;59.50;;;;;;5024979;28;20044;-70
2024/04/07 09:58:32;;;;;;;35.35;5.20;;;24.30;59.40;;;;;;5037725;28;20426;-72
2024/04/07 10:00:59;;;;;;;7.13;2.95;;;24.30;58.00;;;;;;5009843;28;20043;-76
2024/04/07 10:03:25;;;;;;;7.05;2.53;;;24.20;58.50;;;;;;5037267;28;20041;-77
2024/04/07 10:05:51;;;;;;;7.35;2.70;;;24.20;58.00;;;;;;5035969;28;20384;-76
2024/04/07 10:08:19;;;;;;;6.25;2.75;;;24.20;58.00;;;;;;5009675;28;20041;-79
2024/04/07 10:10:46;;;;;;;7.22;2.53;;;24.20;59.60;;;;;;5016447;28;20106;-74
2024/04/07 10:13:17;;;;;;;7.20;2.72;;;24.10;58.70;;;;;;5029981;28;20372;-72
2024/04/07 10:15:49;;;;;;;12.85;2.85;;;24.10;58.20;;;;;;5053064;28;20583;-75
2024/04/07 10:18:19;;;;;;;8.80;3.13;;;24.00;58.60;;;;;;5020281;28;20036;-73
2024/04/07 10:20:55;;;;;;;5.72;2.83;;;23.90;57.60;;;;;;5020987;28;20102;-75
2024/04/07 10:23:28;;;;;;;5.03;2.53;;;24.10;56.60;;;;;;5036709;28;20403;-76
2024/04/07 10:26:03;;;;;;;8.95;3.28;;;24.10;56.20;;;;;;5020026;28;20067;-74
2024/04/07 10:28:58;;;;;;;7.05;2.72;;;24.30;58.10;;;;;;5025510;28;20379;-76
2024/04/07 10:31:26;;;;;;;7.85;3.97;;;24.50;57.70;;;;;;5036497;28;20040;-77
2024/04/07 10:33:53;;;;;;;6.82;2.75;;;24.50;56.00;;;;;;5007752;28;20048;-77
2024/04/07 10:36:21;;;;;;;8.98;2.20;;;24.60;56.50;;;;;;5017480;28;20029;-76
2024/04/07 10:38:50;;;;;;;6.50;1.98;;;24.70;56.20;;;;;;5019740;28;20388;-73
2024/04/07 10:41:22;;;;;;;13.75;3.25;;;24.70;55.80;;;;;;5030020;28;20032;-72
2024/04/07 10:43:49;;;;;;;7.32;2.70;;;24.70;55.70;;;;;;5029984;28;20114;-78
2024/04/07 10:46:17;;;;;;;4.07;2.20;;;24.70;56.00;;;;;;5052758;28;20036;-78
2024/04/07 10:48:45;;;;;;;42.60;27.95;;;24.80;56.60;;;;;;5016047;28;20484;-73
2024/04/07 10:51:12;;;;;;;92.43;67.85;;;24.80;58.00;;;;;;5048846;28;20032;-78
2024/04/07 10:53:40;;;;;;;13.30;5.88;;;24.80;57.40;;;;;;5036038;28;20044;-79
2024/04/07 10:56:06;;;;;;;24.08;19.08;;;24.70;57.10;;;;;;5052761;28;20044;-77
2024/04/07 10:58:37;;;;;;;40.70;36.15;;;24.80;56.40;;;;;;5010622;28;20040;-76
2024/04/07 11:01:04;;;;;;;10.00;6.80;;;24.90;56.00;;;;;;5039017;28;20590;-76
2024/04/07 11:03:36;;;;;;;32.10;22.98;;;24.90;56.40;;;;;;5018143;28;20044;-75
2024/04/07 11:06:07;;;;;;;45.97;35.88;;;24.80;56.20;;;;;;5018731;28;20106;-76
2024/04/07 11:08:34;;;;;;;44.75;33.15;;;25.00;55.80;;;;;;5019146;28;20089;-79
2024/04/07 11:11:02;;;;;;;11.15;7.07;;;25.10;55.90;;;;;;5035545;28;20044;-76
2024/04/07 11:13:29;;;;;;;6.15;2.75;;;25.20;55.60;;;;;;5034791;28;20426;-78
2024/04/07 11:15:56;;;;;;;5.78;2.40;;;25.20;55.20;;;;;;5019974;28;20055;-81
2024/04/07 11:18:24;;;;;;;6.40;2.40;;;25.20;54.90;;;;;;5016865;28;20021;-80
2024/04/07 11:20:54;;;;;;;3.95;2.15;;;25.10;54.60;;;;;;5033952;28;20078;-77
2024/04/07 11:23:20;;;;;;;4.00;2.17;;;25.60;53.30;;;;;;5009370;28;20384;-80
2024/04/07 11:25:52;;;;;;;5.57;2.20;;;25.60;53.20;;;;;;5035389;28;20033;-78
2024/04/07 11:28:21;;;;;;;57.17;38.63;;;25.30;53.90;;;;;;5032773;28;20041;-79
2024/04/07 11:30:56;;;;;;;29.83;22.00;;;25.50;54.30;;;;;;5019093;28;20557;-79
2024/04/07 11:33:24;;;;;;;52.65;39.78;;;25.80;53.50;;;;;;5033845;28;20495;-78
2024/04/07 11:35:51;;;;;;;36.97;29.35;;;25.60;54.00;;;;;;5027030;28;20044;-76
2024/04/07 11:38:17;;;;;;;8.95;6.70;;;25.50;54.30;;;;;;5014913;28;20049;-77
2024/04/07 11:40:43;;;;;;;5.85;2.30;;;25.60;54.40;;;;;;5023832;28;20036;-81
2024/04/07 11:43:11;;;;;;;4.50;2.20;;;25.40;54.50;;;;;;5022946;28;20036;-80
2024/04/07 11:45:40;;;;;;;5.85;2.40;;;25.20;54.00;;;;;;5056772;28;20070;-80
2024/04/07 11:48:10;;;;;;;8.68;3.17;;;25.00;54.20;;;;;;5018083;28;20044;-80
2024/04/07 11:50:36;;;;;;;6.30;2.40;;;24.80;54.70;;;;;;5040635;28;20429;-83
2024/04/07 11:53:02;;;;;;;10.65;4.07;;;24.60;54.60;;;;;;5036085;28;20043;-77
2024/04/07 11:55:32;;;;;;;7.80;2.90;;;24.80;55.40;;;;;;5036265;28;20041;-79
2024/04/07 11:57:58;;;;;;;7.22;2.28;;;24.80;55.20;;;;;;5021164;28;20090;-78
2024/04/07 12:00:24;;;;;;;2.97;1.88;;;24.80;54.70;;;;;;5023728;28;20056;-81
2024/04/07 12:02:50;;;;;;;6.18;2.35;;;25.10;54.10;;;;;;5022894;28;20052;-80
2024/04/07 12:05:19;;;;;;;4.68;2.45;;;25.00;53.70;;;;;;5039164;28;20433;-77
2024/04/07 12:07:46;;;;;;;5.00;1.70;;;25.50;54.00;;;;;;5010345;28;20521;-81
2024/04/07 12:10:14;;;;;;;5.00;1.75;;;25.90;53.00;;;;;;5022967;28;20422;-79
2024/04/07 12:12:42;;;;;;;3.88;1.77;;;26.30;53.30;;;;;;5022553;28;20143;-76
2024/04/07 12:15:08;;;;;;;6.20;2.13;;;26.30;52.90;;;;;;5039104;28;20037;-77
2024/04/07 12:17:35;;;;;;;4.70;2.33;;;26.00;53.60;;;;;;5021047;28;20040;-75
2024/04/07 12:20:02;;;;;;;5.10;1.90;;;26.00;52.80;;;;;;5021650;28;20044;-76
2024/04/07 12:22:37;;;;;;;5.82;1.98;;;26.30;53.10;;;;;;5053442;28;20049;-82
2024/04/07 12:25:04;;;;;;;4.97;2.00;;;26.80;52.70;;;;;;5019582;28;20036;-82
2024/04/07 12:27:32;;;;;;;4.80;2.28;;;26.80;53.00;;;;;;5008022;28;20044;-83
2024/04/07 12:29:59;;;;;;;3.42;1.77;;;26.80;52.20;;;;;;5026987;28;20040;-79
2024/04/07 12:32:26;;;;;;;4.57;1.90;;;26.90;52.20;;;;;;5024918;28;20554;-80
2024/04/07 12:34:54;;;;;;;8.05;1.95;;;26.50;52.50;;;;;;5018721;28;20546;-77
2024/04/07 12:37:20;;;;;;;5.47;2.28;;;26.10;52.90;;;;;;5009950;28;20048;-80
2024/04/07 12:39:48;;;;;;;5.55;2.10;;;26.30;52.90;;;;;;5038326;28;20032;-82
2024/04/07 12:42:15;;;;;;;5.57;2.95;;;26.40;53.10;;;;;;5055684;28;20447;-83
2024/04/07 12:44:41;;;;;;;3.90;2.03;;;26.60;51.20;;;;;;5055515;28;20041;-82